Time;durP1;ratioP1;P1;durP2;ratioP2;P2;SDS_P1;SDS_P2;PMS_P1;PMS_P2;Temp;Humidity;BMP_temperature;BMP_pressure;BME280_temperature;BME280_humidity;BME280_pressure;Samples;Min_cycle;Max_cycle;Signal;HPM_P1;HPM_P2
2021/05/05 00:02:13;;;;;;;7.13;1.48;;;;;;;7.91;100.00;101247.94;5017685;28;20069;-65
2021/05/05 00:04:39;;;;;;;4.25;1.10;;;;;;;7.90;100.00;101259.03;5017532;28;20040;-62
2021/05/05 00:07:04;;;;;;;6.53;1.20;;;;;;;7.87;100.00;101238.53;5017575;28;20550;-63
2021/05/05 00:09:30;;;;;;;5.28;1.75;;;;;;;7.87;100.00;101238.53;5017516;28;20072;-64
2021/05/05 00:11:56;;;;;;;8.25;2.00;;;;;;;7.88;100.00;101234.78;5018064;28;20045;-62
2021/05/05 00:14:23;;;;;;;7.25;1.30;;;;;;;7.84;100.00;101231.66;5017670;28;20096;-63
2021/05/05 00:16:48;;;;;;;7.45;1.38;;;;;;;7.82;100.00;101232.91;5017330;28;20444;-63
2021/05/05 00:19:14;;;;;;;7.65;1.60;;;;;;;7.79;100.00;101234.16;5017569;28;20038;-61
2021/05/05 00:21:41;;;;;;;6.25;1.40;;;;;;;7.75;100.00;101226.66;5017580;28;20045;-62
2021/05/05 00:24:07;;;;;;;5.30;1.20;;;;;;;7.72;100.00;101229.81;5017939;28;20381;-63
2021/05/05 00:26:33;;;;;;;5.45;1.60;;;;;;;7.68;100.00;101237.56;5017457;28;20458;-64
2021/05/05 00:28:59;;;;;;;8.35;1.13;;;;;;;7.68;100.00;101234.00;5017584;28;20050;-62
2021/05/05 00:31:25;;;;;;;7.20;1.25;;;;;;;7.68;100.00;101231.28;5017605;28;20037;-62
2021/05/05 00:33:50;;;;;;;4.28;1.00;;;;;;;7.67;100.00;101232.34;5017343;28;20134;-64
2021/05/05 00:36:16;;;;;;;6.85;1.40;;;;;;;7.66;100.00;101233.38;5017424;28;20123;-61
2021/05/05 00:38:44;;;;;;;8.50;1.50;;;;;;;7.62;100.00;101243.00;5032529;28;20037;-62
2021/05/05 00:41:11;;;;;;;5.43;1.23;;;;;;;7.60;100.00;101231.50;5017332;28;20037;-63
2021/05/05 00:43:37;;;;;;;3.25;1.17;;;;;;;7.55;100.00;101232.97;5017332;28;20030;-61
2021/05/05 00:46:03;;;;;;;6.93;1.38;;;;;;;7.53;100.00;101235.09;5017643;28;20587;-63
2021/05/05 00:48:29;;;;;;;11.70;2.05;;;;;;;7.50;100.00;101230.06;5017888;28;20034;-65
2021/05/05 00:50:57;;;;;;;7.70;1.30;;;;;;;7.51;100.00;101231.75;5017409;28;20113;-63
2021/05/05 00:53:23;;;;;;;7.30;1.58;;;;;;;7.50;100.00;101227.34;5017165;28;20038;-61
2021/05/05 00:55:49;;;;;;;8.73;1.48;;;;;;;7.50;100.00;101230.06;5017288;28;20044;-64
2021/05/05 00:58:16;;;;;;;9.45;1.33;;;;;;;7.50;100.00;101229.25;5017287;28;20044;-62
2021/05/05 01:00:45;;;;;;;10.20;1.48;;;;;;;7.50;100.00;101230.06;5017303;28;20360;-63
2021/05/05 01:03:11;;;;;;;7.72;1.70;;;;;;;7.50;100.00;101221.94;5017293;28;20137;-63
2021/05/05 01:05:37;;;;;;;12.88;1.60;;;;;;;7.52;100.00;101230.69;5017455;28;20112;-63
2021/05/05 01:08:05;;;;;;;7.32;1.30;;;;;;;7.51;100.00;101226.31;5017360;28;20121;-62
2021/05/05 01:10:32;;;;;;;8.45;1.52;;;;;;;7.50;100.00;101224.63;5015157;28;20042;-63
2021/05/05 01:12:59;;;;;;;7.20;2.03;;;;;;;7.50;100.00;101219.22;5014444;28;20061;-64
2021/05/05 01:15:24;;;;;;;9.57;1.67;;;;;;;7.49;100.00;101216.69;5012852;28;20078;-64
2021/05/05 01:17:50;;;;;;;9.13;1.60;;;;;;;7.49;100.00;101222.97;5014496;28;20034;-61
2021/05/05 01:20:16;;;;;;;8.15;1.55;;;;;;;7.49;100.00;101228.41;5014057;28;20502;-64
2021/05/05 01:22:42;;;;;;;5.90;1.13;;;;;;;7.48;100.00;101215.88;5014063;28;20041;-61
2021/05/05 01:25:12;;;;;;;14.48;3.58;;;;;;;7.48;100.00;101221.31;5013999;28;20045;-62
2021/05/05 01:27:39;;;;;;;10.98;1.58;;;;;;;7.45;100.00;101216.28;5013782;28;20065;-62
2021/05/05 01:30:06;;;;;;;11.65;1.48;;;;;;;7.43;100.00;101206.66;5013570;28;20396;-61
2021/05/05 01:32:31;;;;;;;8.55;1.60;;;;;;;7.43;100.00;101217.53;5013595;28;20030;-62
2021/05/05 01:34:57;;;;;;;6.30;1.83;;;;;;;7.42;100.00;101222.13;5013441;28;20076;-63
2021/05/05 01:37:23;;;;;;;12.85;3.58;;;;;;;7.42;100.00;101221.31;5013573;28;20069;-62
2021/05/05 01:39:49;;;;;;;5.93;1.30;;;;;;;7.44;100.00;101225.47;5013470;28;20046;-62
2021/05/05 01:42:14;;;;;;;10.93;2.08;;;;;;;7.46;100.00;101212.53;5013783;28;20045;-64
2021/05/05 01:44:41;;;;;;;8.88;1.55;;;;;;;7.44;100.00;101220.03;5013491;28;20041;-63
2021/05/05 01:47:12;;;;;;;10.65;1.90;;;;;;;7.48;100.00;101215.88;5013403;28;20034;-62
2021/05/05 01:49:48;;;;;;;9.43;2.75;;;;;;;7.50;100.00;101211.06;5013374;28;20034;-63
2021/05/05 01:52:16;;;;;;;18.45;2.70;;;;;;;7.53;100.00;101207.91;5013247;28;20026;-64
2021/05/05 01:54:41;;;;;;;7.82;3.13;;;;;;;7.54;100.00;101209.56;5013101;28;20540;-63
2021/05/05 01:57:37;;;;;;;14.65;2.22;;;;;;;7.54;100.00;101215.00;5013252;28;20045;-61
2021/05/05 02:00:19;;;;;;;12.23;2.10;;;;;;;7.57;100.00;101209.13;5013515;28;20042;-63
2021/05/05 02:02:45;;;;;;;10.80;1.83;;;;;;;7.57;100.00;101202.88;5013026;28;20038;-61
2021/05/05 02:05:11;;;;;;;14.27;2.45;;;;;;;7.56;100.00;101204.75;5013046;28;20397;-63
2021/05/05 02:07:38;;;;;;;13.65;2.28;;;;;;;7.55;100.00;101204.97;5012915;28;20065;-61
2021/05/05 02:10:09;;;;;;;10.02;2.58;;;;;;;7.56;100.00;101204.75;5012852;28;20038;-64
2021/05/05 02:12:36;;;;;;;10.55;1.50;;;;;;;7.55;100.00;101210.41;5012901;28;20034;-63
2021/05/05 02:15:04;;;;;;;12.65;2.20;;;;;;;7.54;100.00;101209.56;5012536;28;20049;-64
2021/05/05 02:17:30;;;;;;;21.92;3.00;;;;;;;7.55;100.00;101205.81;5013223;28;20115;-63
2021/05/05 02:19:56;;;;;;;16.20;2.45;;;;;;;7.53;100.00;101212.50;5012713;28;20037;-64
2021/05/05 02:22:22;;;;;;;15.82;2.90;;;;;;;7.53;100.00;101216.06;5012415;28;20033;-62
2021/05/05 02:24:47;;;;;;;14.65;2.83;;;;;;;7.53;100.00;101207.91;5012653;28;20396;-62
2021/05/05 02:27:14;;;;;;;14.20;2.90;;;;;;;7.53;100.00;101221.50;5012608;28;20488;-62
2021/05/05 02:29:39;;;;;;;15.57;2.90;;;;;;;7.53;100.00;101212.50;5011239;28;20204;-62
2021/05/05 02:32:10;;;;;;;11.25;2.38;;;;;;;7.52;100.00;101222.53;5012452;28;20022;-64
2021/05/05 02:34:36;;;;;;;10.02;2.30;;;;;;;7.53;100.00;101221.50;5012553;28;20045;-64
2021/05/05 02:37:03;;;;;;;11.05;2.45;;;;;;;7.53;100.00;101218.78;5012500;28;20034;-61
2021/05/05 02:39:29;;;;;;;13.88;2.70;;;;;;;7.55;100.00;101227.53;5012474;28;20030;-62
2021/05/05 02:41:54;;;;;;;14.52;2.17;;;;;;;7.53;100.00;101226.09;5012392;28;20373;-60
2021/05/05 02:44:20;;;;;;;15.00;1.80;;;;;;;7.56;100.00;101212.06;5012221;28;20384;-64
2021/05/05 02:46:45;;;;;;;16.23;2.42;;;;;;;7.54;100.00;101220.44;5012239;28;20400;-64
2021/05/05 02:49:12;;;;;;;14.45;3.70;;;;;;;7.55;100.00;101226.72;5012148;28;20404;-64
2021/05/05 02:51:37;;;;;;;14.68;2.30;;;;;;;7.57;100.00;101214.56;5012272;28;20045;-63
2021/05/05 02:54:03;;;;;;;14.13;2.30;;;;;;;7.60;100.00;101223.34;5012239;28;20108;-63
2021/05/05 02:56:29;;;;;;;12.20;1.90;;;;;;;7.63;100.00;101239.22;5012054;28;20038;-62
2021/05/05 02:58:55;;;;;;;14.85;2.25;;;;;;;7.64;100.00;101240.94;5012058;28;20535;-62
2021/05/05 03:01:21;;;;;;;20.70;3.75;;;;;;;7.65;100.00;101240.72;5011919;28;20407;-63
2021/05/05 03:03:47;;;;;;;14.73;2.30;;;;;;;7.65;100.00;101237.16;5011846;28;20034;-63
2021/05/05 03:06:12;;;;;;;13.98;2.88;;;;;;;7.63;100.00;101244.66;5011871;28;20036;-61
2021/05/05 03:08:39;;;;;;;20.15;3.75;;;;;;;7.60;100.00;101240.50;5012027;28;20061;-60
2021/05/05 03:11:05;;;;;;;11.45;2.90;;;;;;;7.56;100.00;101240.09;5011920;28;20061;-62
2021/05/05 03:13:31;;;;;;;13.77;2.28;;;;;;;7.53;100.00;101239.69;5011577;28;20030;-64
2021/05/05 03:15:57;;;;;;;13.43;2.78;;;;;;;7.48;100.00;101248.47;5011585;28;20389;-63
2021/05/05 03:18:24;;;;;;;16.15;2.67;;;;;;;7.45;100.00;101248.88;5011698;28;20049;-64
2021/05/05 03:20:49;;;;;;;18.83;2.88;;;;;;;7.44;100.00;101247.22;5011462;28;20131;-61
2021/05/05 03:23:15;;;;;;;13.88;2.97;;;;;;;7.42;100.00;101243.88;5011575;28;20456;-63
2021/05/05 03:25:41;;;;;;;15.43;2.67;;;;;;;7.42;100.00;101243.88;5011620;28;20128;-63
2021/05/05 03:28:07;;;;;;;13.10;2.67;;;;;;;7.41;100.00;101244.09;5011589;28;20065;-63
2021/05/05 03:30:34;;;;;;;16.13;2.65;;;;;;;7.39;100.00;101238.88;5011466;28;20034;-64
2021/05/05 03:32:59;;;;;;;20.27;2.95;;;;;;;7.39;100.00;101244.31;5011230;28;20150;-62
2021/05/05 03:35:25;;;;;;;10.48;2.42;;;;;;;7.38;100.00;101242.63;5010721;28;20516;-61
2021/05/05 03:37:51;;;;;;;18.38;2.63;;;;;;;7.38;100.00;101248.06;5011279;28;20041;-62
2021/05/05 03:40:17;;;;;;;11.75;2.10;;;;;;;7.36;100.00;101250.16;5011206;28;20061;-64
2021/05/05 03:42:43;;;;;;;16.85;2.80;;;;;;;7.38;100.00;101253.50;5011175;28;20496;-65
2021/05/05 03:45:10;;;;;;;15.00;3.22;;;;;;;7.40;100.00;101259.56;5011437;28;20040;-64
2021/05/05 03:47:37;;;;;;;10.80;2.53;;;;;;;7.42;100.00;101249.31;5011277;28;20072;-64
2021/05/05 03:50:05;;;;;;;13.10;2.50;;;;;;;7.45;100.00;101251.59;5011170;28;20477;-63
2021/05/05 03:52:31;;;;;;;20.33;2.97;;;;;;;7.46;100.00;101261.44;5011151;28;20030;-62
2021/05/05 03:54:56;;;;;;;13.73;3.42;;;;;;;7.49;100.00;101258.31;5010969;28;20489;-62
2021/05/05 03:57:23;;;;;;;12.55;2.17;;;;;;;7.50;100.00;101262.69;5011071;28;20038;-62
2021/05/05 03:59:48;;;;;;;12.82;2.58;;;;;;;7.49;100.00;101255.59;5011041;28;20443;-64
2021/05/05 04:02:14;;;;;;;7.72;2.38;;;;;;;7.49;100.00;101249.31;5011265;28;20050;-63
2021/05/05 04:04:39;;;;;;;11.20;2.33;;;;;;;7.48;100.00;101262.06;5011134;28;20523;-64
2021/05/05 04:07:05;;;;;;;7.80;2.63;;;;;;;7.49;100.00;101266.47;5010990;28;20503;-61
2021/05/05 04:09:31;;;;;;;12.05;2.70;;;;;;;7.48;100.00;101256.63;5010958;28;20044;-64
2021/05/05 04:11:57;;;;;;;16.15;2.17;;;;;;;7.49;100.00;101260.19;5011147;28;20033;-61
2021/05/05 04:14:23;;;;;;;12.10;2.30;;;;;;;7.49;100.00;101271.91;5010937;28;20042;-62
2021/05/05 04:16:49;;;;;;;18.65;2.78;;;;;;;7.49;100.00;101266.47;5010890;28;20088;-61
2021/05/05 04:19:15;;;;;;;7.72;1.80;;;;;;;7.51;100.00;101269.78;5011080;28;20041;-63
2021/05/05 04:21:40;;;;;;;11.02;2.05;;;;;;;7.52;100.00;101274.19;5009610;28;20129;-62
2021/05/05 04:24:07;;;;;;;11.23;2.35;;;;;;;7.53;100.00;101275.84;5010860;28;20130;-62
2021/05/05 04:26:34;;;;;;;14.27;1.65;;;;;;;7.54;100.00;101280.25;5010845;28;20038;-63
2021/05/05 04:29:00;;;;;;;9.40;1.60;;;;;;;7.53;100.00;101278.56;5010936;28;20514;-62
2021/05/05 04:31:26;;;;;;;10.70;1.42;;;;;;;7.53;100.00;101284.00;5010752;28;20038;-64
2021/05/05 04:33:51;;;;;;;12.48;2.80;;;;;;;7.54;100.00;101293.84;5010722;28;20052;-61
2021/05/05 04:36:18;;;;;;;9.68;1.92;;;;;;;7.55;100.00;101286.50;5010953;28;20037;-63
2021/05/05 04:38:43;;;;;;;6.63;1.52;;;;;;;7.53;100.00;101284.00;5010771;28;20092;-61
2021/05/05 04:41:09;;;;;;;11.52;2.50;;;;;;;7.52;100.00;101298.66;5010737;28;20038;-62
2021/05/05 04:43:35;;;;;;;10.38;2.17;;;;;;;7.51;100.00;101294.25;5009286;28;20030;-64
2021/05/05 04:46:02;;;;;;;13.25;2.22;;;;;;;7.50;100.00;101294.47;5012897;28;20117;-62
2021/05/05 04:48:29;;;;;;;11.93;2.78;;;;;;;7.49;100.00;101299.06;5013298;28;20109;-62
2021/05/05 04:50:54;;;;;;;12.27;1.83;;;;;;;7.47;100.00;101300.34;5014249;28;20543;-61
2021/05/05 04:53:20;;;;;;;8.52;1.95;;;;;;;7.44;100.00;101289.84;5014184;28;20081;-62
2021/05/05 04:55:46;;;;;;;8.45;1.90;;;;;;;7.43;100.00;101304.50;5014337;28;20041;-62
2021/05/05 04:58:13;;;;;;;12.38;1.92;;;;;;;7.41;100.00;101317.47;5014474;28;20447;-62
2021/05/05 05:00:38;;;;;;;14.68;2.28;;;;;;;7.40;100.00;101311.19;5013966;28;20136;-63
2021/05/05 05:03:04;;;;;;;12.43;2.33;;;;;;;7.40;100.00;101311.19;5014008;28;20052;-63
2021/05/05 05:05:30;;;;;;;13.48;3.13;;;;;;;7.42;100.00;101308.25;5014072;28;20069;-62
2021/05/05 05:07:56;;;;;;;9.98;2.08;;;;;;;7.43;100.00;101310.78;5013944;28;20033;-63
2021/05/05 05:10:23;;;;;;;11.82;1.90;;;;;;;7.43;100.00;101316.19;5013783;28;20034;-62
2021/05/05 05:12:48;;;;;;;10.85;2.35;;;;;;;7.42;100.00;101314.53;5014100;28;20052;-63
2021/05/05 05:15:14;;;;;;;12.80;2.03;;;;;;;7.43;100.00;101316.19;5013712;28;20077;-62
2021/05/05 05:17:40;;;;;;;17.25;2.47;;;;;;;7.43;100.00;101318.91;5012469;28;20072;-61
2021/05/05 05:20:09;;;;;;;10.43;2.28;;;;;;;7.45;100.00;101314.09;5013676;28;20038;-62
2021/05/05 05:22:36;;;;;;;13.38;3.55;;;;;;;7.48;100.00;101316.44;5013587;28;20038;-61
2021/05/05 05:25:10;;;;;;;14.57;3.25;;;;;;;7.48;100.00;101321.88;5013659;28;20053;-60
2021/05/05 05:27:36;;;;;;;21.83;3.90;;;;;;;7.49;100.00;101318.09;5013740;28;20036;-63
2021/05/05 05:30:03;;;;;;;15.55;3.60;;;;;;;7.49;100.00;101314.53;5013619;28;20065;-64
2021/05/05 05:32:28;;;;;;;13.70;2.50;;;;;;;7.47;100.00;101317.47;5013632;28;20392;-64
2021/05/05 05:34:54;;;;;;;9.80;1.85;;;;;;;7.46;100.00;101323.97;5013394;28;20034;-61
2021/05/05 05:37:20;;;;;;;11.93;1.80;;;;;;;7.45;100.00;101330.41;5013398;28;20439;-62
2021/05/05 05:39:46;;;;;;;12.32;2.22;;;;;;;7.45;100.00;101330.41;5013574;28;20045;-61
2021/05/05 05:42:12;;;;;;;10.25;2.88;;;;;;;7.43;100.00;101328.94;5013439;28;20042;-63
2021/05/05 05:44:37;;;;;;;11.18;2.10;;;;;;;7.45;100.00;101330.41;5013352;28;20038;-63
2021/05/05 05:47:04;;;;;;;13.30;2.03;;;;;;;7.46;100.00;101323.09;5013466;28;20045;-60
2021/05/05 05:49:29;;;;;;;9.95;1.90;;;;;;;7.45;100.00;101327.69;5013765;28;20156;-62
2021/05/05 05:51:55;;;;;;;9.93;2.40;;;;;;;7.45;100.00;101330.41;5013252;28;20092;-63
2021/05/05 05:54:21;;;;;;;11.05;2.35;;;;;;;7.47;100.00;101327.50;5013033;28;20034;-61
2021/05/05 05:56:47;;;;;;;13.52;2.35;;;;;;;7.47;100.00;101339.22;5012460;28;20030;-64
2021/05/05 05:59:12;;;;;;;8.43;2.13;;;;;;;7.50;100.00;101343.41;5013186;28;20116;-65
2021/05/05 06:01:38;;;;;;;9.00;1.88;;;;;;;7.50;100.00;101346.94;5013010;28;20038;-62
2021/05/05 06:04:04;;;;;;;14.65;2.83;;;;;;;7.51;100.00;101348.63;5013022;28;20558;-62
2021/05/05 06:06:30;;;;;;;9.90;2.03;;;;;;;7.51;100.00;101356.78;5012883;28;20518;-63
2021/05/05 06:08:55;;;;;;;11.30;1.67;;;;;;;7.52;100.00;101358.44;5013054;28;20041;-63
2021/05/05 06:11:21;;;;;;;7.05;1.80;;;;;;;7.54;100.00;101353.63;5012911;28;20046;-63
2021/05/05 06:13:47;;;;;;;11.82;1.65;;;;;;;7.56;100.00;101358.84;5012762;28;20108;-63
2021/05/05 06:16:13;;;;;;;6.93;2.28;;;;;;;7.59;100.00;101363.03;5012490;28;20488;-63
2021/05/05 06:18:39;;;;;;;11.52;2.42;;;;;;;7.64;100.00;101368.69;5012642;28;20034;-62
2021/05/05 06:21:05;;;;;;;17.15;2.03;;;;;;;7.70;100.00;101376.00;5012560;28;20046;-62
2021/05/05 06:23:30;;;;;;;12.73;1.58;;;;;;;7.77;100.00;101376.81;5012527;28;20041;-64
2021/05/05 06:25:56;;;;;;;8.98;1.27;;;;;;;7.83;100.00;101381.44;5012676;28;20048;-63
2021/05/05 06:28:23;;;;;;;7.63;1.20;;;;;;;7.92;100.00;101388.31;5012442;28;20129;-62
2021/05/05 06:30:48;;;;;;;5.50;1.73;;;;;;;7.98;100.00;101390.19;5012316;28;20099;-63
2021/05/05 06:33:14;;;;;;;6.18;1.20;;;;;;;8.01;100.00;101395.22;5010959;28;20046;-63
2021/05/05 06:35:40;;;;;;;12.00;2.17;;;;;;;8.02;100.00;101396.88;5012366;28;20038;-62
2021/05/05 06:38:05;;;;;;;6.22;1.38;;;;;;;8.04;100.00;101397.50;5012477;28;20392;-62
2021/05/05 06:40:31;;;;;;;6.68;1.60;;;;;;;8.06;100.00;101392.69;5012305;28;20057;-61
2021/05/05 06:42:57;;;;;;;9.38;1.45;;;;;;;8.07;100.00;101399.81;5012355;28;20057;-63
2021/05/05 06:45:23;;;;;;;7.75;1.33;;;;;;;8.07;100.00;101399.81;5012276;28;20080;-63
2021/05/05 08:51:19;;;;;;;3.63;0.60;;;;;;;11.50;100.00;101392.44;5000670;28;20626;-63
2021/05/05 08:53:45;;;;;;;5.05;1.27;;;;;;;11.40;100.00;101400.38;5014243;28;20042;-63
2021/05/05 08:56:11;;;;;;;6.22;0.82;;;;;;;11.27;100.00;101400.56;5014049;28;20069;-66
2021/05/05 08:58:37;;;;;;;4.13;0.60;;;;;;;11.27;100.00;101400.56;5014191;28;20121;-64
2021/05/05 09:01:05;;;;;;;3.47;0.50;;;;;;;11.23;100.00;101402.09;5013657;28;20116;-65
2021/05/05 09:03:38;;;;;;;4.55;0.60;;;;;;;11.09;100.00;101405.00;5013719;28;20049;-65
2021/05/05 09:06:05;;;;;;;6.13;0.80;;;;;;;11.06;100.00;101416.41;5013564;28;20026;-63
2021/05/05 09:08:31;;;;;;;3.90;1.52;;;;;;;10.98;100.00;101416.75;5013775;28;20044;-63
2021/05/05 09:11:01;;;;;;;2.50;0.55;;;;;;;10.84;100.00;101423.44;5013684;28;20500;-64
2021/05/05 09:13:49;;;;;;;6.03;1.02;;;;;;;10.63;100.00;101429.41;5013437;28;20038;-66
2021/05/05 09:16:23;;;;;;;2.05;0.45;;;;;;;10.62;100.00;101430.47;5013401;28;20460;-63
2021/05/05 09:18:53;;;;;;;2.80;0.68;;;;;;;10.52;100.00;101442.75;5010160;28;20026;-66
2021/05/05 09:21:33;;;;;;;5.28;0.68;;;;;;;10.47;100.00;101439.88;5012441;28;20041;-62
2021/05/05 09:24:20;;;;;;;2.70;0.70;;;;;;;10.32;100.00;101438.56;5011895;28;20030;-63
2021/05/05 09:26:48;;;;;;;3.05;0.60;;;;;;;10.32;100.00;101447.59;5013088;28;20026;-65
2021/05/05 09:29:14;;;;;;;3.80;0.95;;;;;;;10.34;100.00;101445.47;5012936;28;20511;-63
2021/05/05 09:31:42;;;;;;;11.40;1.05;;;;;;;10.35;100.00;101447.13;5011974;28;20087;-62
2021/05/05 09:34:10;;;;;;;4.53;0.52;;;;;;;10.54;100.00;101445.25;5013261;28;20060;-61
2021/05/05 09:36:37;;;;;;;4.47;0.80;;;;;;;10.65;100.00;101440.94;5012362;28;20030;-62
2021/05/05 09:39:06;;;;;;;2.38;0.60;;;;;;;10.66;100.00;101437.13;5012691;28;20030;-66
2021/05/05 09:41:33;;;;;;;1.98;0.40;;;;;;;10.68;100.00;101440.47;5013298;28;20129;-65
2021/05/05 09:44:02;;;;;;;3.60;0.60;;;;;;;10.71;100.00;101440.84;5012964;28;20037;-63
2021/05/05 09:46:51;;;;;;;2.55;0.90;;;;;;;10.47;100.00;101444.50;5013093;28;20066;-64
2021/05/05 09:49:24;;;;;;;5.65;0.43;;;;;;;10.46;100.00;101449.13;5010853;28;20034;-63
2021/05/05 09:52:00;;;;;;;2.25;0.50;;;;;;;10.52;100.00;101442.75;5027934;28;20104;-62
2021/05/05 09:54:28;;;;;;;5.28;0.70;;;;;;;10.58;100.00;101447.28;5011575;28;20038;-64
2021/05/05 09:57:12;;;;;;;5.30;0.85;;;;;;;10.64;100.00;101433.78;5013138;28;20076;-66
2021/05/05 10:00:08;;;;;;;4.40;0.90;;;;;;;10.74;100.00;101447.75;5012903;28;20103;-65
2021/05/05 10:02:45;;;;;;;1.30;0.55;;;;;;;10.80;100.00;101460.50;5013393;28;20053;-63
2021/05/05 10:05:14;;;;;;;4.95;0.80;;;;;;;10.95;100.00;101455.50;5012684;28;20120;-63
2021/05/05 10:08:08;;;;;;;5.78;1.15;;;;;;;11.33;100.00;101459.81;5012876;28;20499;-63
2021/05/05 10:10:39;;;;;;;8.15;0.80;;;;;;;11.42;100.00;101452.94;5013445;28;20496;-64
2021/05/05 10:13:10;;;;;;;6.30;1.25;;;;;;;11.29;100.00;101453.16;5012736;28;20137;-64
2021/05/05 10:15:38;;;;;;;4.10;1.38;;;;;;;11.36;100.00;101459.34;5012433;28;20394;-64
2021/05/05 10:18:08;;;;;;;4.40;1.38;;;;;;;11.24;100.00;101452.97;5012413;28;20033;-64
2021/05/05 10:20:34;;;;;;;4.53;1.05;;;;;;;11.38;100.00;101444.38;5011946;28;20408;-64
2021/05/05 10:23:02;;;;;;;4.18;0.68;;;;;;;11.42;100.00;101455.66;5011901;28;20399;-65
2021/05/05 10:25:28;;;;;;;1.95;0.75;;;;;;;11.42;100.00;101461.13;5010449;28;20076;-64
2021/05/05 10:27:55;;;;;;;3.60;0.85;;;;;;;11.69;100.00;101464.31;5010928;28;20046;-64
2021/05/05 10:30:29;;;;;;;5.40;0.70;;;;;;;11.88;100.00;101467.84;5012145;28;20044;-62
2021/05/05 10:32:56;;;;;;;3.85;0.77;;;;;;;11.71;100.00;101467.66;5012305;28;20034;-65
2021/05/05 10:35:23;;;;;;;3.78;0.63;;;;;;;11.84;100.00;101472.13;5011839;28;20135;-65
2021/05/05 10:37:56;;;;;;;3.63;0.52;;;;;;;11.97;98.41;101466.41;5012045;28;20052;-64
2021/05/05 10:40:26;;;;;;;4.32;0.93;;;;;;;12.04;99.42;101461.69;5012267;28;20417;-62
2021/05/05 10:43:00;;;;;;;2.90;0.98;;;;;;;12.53;92.37;101462.28;5011863;28;20041;-66
2021/05/05 10:45:43;;;;;;;1.95;0.65;;;;;;;12.68;84.68;101457.97;5018693;28;20542;-61
2021/05/05 10:48:15;;;;;;;2.33;0.40;;;;;;;12.75;82.09;101452.34;5011980;28;20034;-62
2021/05/05 10:50:55;;;;;;;2.60;0.60;;;;;;;12.72;88.88;101461.06;5010799;28;20061;-64
2021/05/05 10:53:42;;;;;;;2.83;0.60;;;;;;;12.69;88.14;101453.31;5011385;28;20133;-66
2021/05/05 10:56:29;;;;;;;4.93;0.50;;;;;;;12.66;78.88;101462.00;5008552;28;20057;-64
2021/05/05 10:59:01;;;;;;;3.78;0.80;;;;;;;12.82;80.38;101464.00;5011796;28;20034;-62
2021/05/05 11:01:38;;;;;;;3.35;0.52;;;;;;;12.88;80.83;101468.53;5005311;28;20046;-64
2021/05/05 11:04:10;;;;;;;0.55;0.40;;;;;;;13.11;79.14;101464.88;5011008;28;20088;-65
2021/05/05 11:06:36;;;;;;;2.33;0.50;;;;;;;13.06;79.19;101463.94;5010425;28;20038;-65
2021/05/05 11:09:15;;;;;;;1.98;0.68;;;;;;;13.16;74.39;101469.63;5011133;28;20053;-62
2021/05/05 11:11:45;;;;;;;3.80;0.63;;;;;;;13.21;76.68;101472.50;5011102;28;20096;-67
2021/05/05 11:14:37;;;;;;;4.13;0.80;;;;;;;12.89;80.00;101466.63;5010847;28;20038;-66
2021/05/05 11:17:06;;;;;;;4.10;0.80;;;;;;;12.36;100.00;101475.88;5012785;28;20140;-68
2021/05/05 11:19:38;;;;;;;5.25;0.60;;;;;;;12.14;100.00;101493.94;5011189;28;20112;-62
2021/05/05 11:22:07;;;;;;;2.08;0.50;;;;;;;12.23;100.00;101485.13;5010305;28;20049;-65
2021/05/05 11:24:35;;;;;;;2.13;0.57;;;;;;;12.29;100.00;101489.66;5010512;28;20099;-64
2021/05/05 11:27:03;;;;;;;3.13;0.40;;;;;;;12.26;100.00;101505.75;5010955;28;20030;-64
2021/05/05 11:29:42;;;;;;;3.65;0.50;;;;;;;12.29;100.00;101497.88;5011093;28;20103;-64
2021/05/05 11:32:12;;;;;;;2.13;0.50;;;;;;;12.37;100.00;101493.97;5010927;28;20546;-66
2021/05/05 11:34:39;;;;;;;4.07;0.50;;;;;;;12.36;92.91;101504.09;5010060;28;20049;-66
2021/05/05 11:37:10;;;;;;;3.28;0.50;;;;;;;12.51;90.07;101494.56;5010580;28;20373;-63
2021/05/05 11:39:55;;;;;;;2.80;0.60;;;;;;;12.66;90.82;101483.91;5010922;28;20145;-66
2021/05/05 11:42:25;;;;;;;2.38;0.60;;;;;;;12.73;87.38;101492.88;5010168;28;20118;-64
2021/05/05 11:45:02;;;;;;;1.58;0.47;;;;;;;12.67;89.50;101488.34;5010561;28;20069;-64
2021/05/05 11:47:34;;;;;;;1.38;0.40;;;;;;;12.56;92.42;101495.50;4998318;28;20120;-62
2021/05/05 11:50:04;;;;;;;5.72;0.98;;;;;;;12.59;96.00;101485.97;5007507;28;20038;-62
2021/05/05 11:52:32;;;;;;;3.20;0.50;;;;;;;12.69;92.79;101491.69;5010929;28;20084;-67
2021/05/05 11:55:09;;;;;;;3.47;0.60;;;;;;;12.70;83.76;101487.88;5009951;28;20022;-65
2021/05/05 11:57:44;;;;;;;2.45;0.70;;;;;;;12.72;83.72;101480.22;5010588;28;20038;-64
2021/05/05 12:00:21;;;;;;;3.92;0.50;;;;;;;13.12;84.25;101491.22;5010797;28;20088;-64
2021/05/05 12:02:55;;;;;;;2.05;0.60;;;;;;;13.31;80.46;101478.19;5010216;28;20096;-61
2021/05/05 12:05:22;;;;;;;6.03;1.25;;;;;;;13.49;79.96;101477.97;5010613;28;20161;-65
2021/05/05 12:08:08;;;;;;;4.03;0.80;;;;;;;13.92;72.83;101483.97;5009904;28;20510;-67
2021/05/05 12:10:44;;;;;;;3.13;0.40;;;;;;;13.71;73.69;101482.75;5010697;28;20520;-65
2021/05/05 12:13:12;;;;;;;4.45;0.47;;;;;;;13.66;75.51;101485.41;5009775;28;20080;-62
2021/05/05 12:15:42;;;;;;;0.85;0.30;;;;;;;13.36;76.35;101480.19;5010332;28;20084;-64
2021/05/05 12:18:22;;;;;;;2.30;0.40;;;;;;;13.47;77.54;101487.53;5011109;28;20041;-64
2021/05/05 12:20:49;;;;;;;2.80;0.60;;;;;;;13.56;78.11;101491.56;5010396;28;20392;-63
2021/05/05 12:23:16;;;;;;;3.28;0.55;;;;;;;13.56;80.91;101486.09;5010298;28;20139;-64
2021/05/05 12:25:42;;;;;;;2.33;0.70;;;;;;;13.51;82.19;101481.31;5010302;28;20026;-64
2021/05/05 12:28:15;;;;;;;3.50;0.50;;;;;;;13.05;87.31;101485.06;5010755;28;20037;-66
2021/05/05 12:30:44;;;;;;;3.47;0.40;;;;;;;12.88;86.63;101493.19;5022170;28;20050;-63
2021/05/05 12:33:11;;;;;;;3.50;0.57;;;;;;;12.60;89.00;101504.06;5010056;28;20045;-61
2021/05/05 12:35:38;;;;;;;2.20;0.80;;;;;;;12.59;99.28;101518.84;5010238;28;20030;-64
2021/05/05 12:38:06;;;;;;;3.40;0.60;;;;;;;12.53;100.00;101504.22;5010379;28;20041;-64
2021/05/05 12:40:33;;;;;;;2.30;0.40;;;;;;;12.47;100.00;101509.78;5009743;28;20044;-67
2021/05/05 12:43:18;;;;;;;6.65;0.98;;;;;;;12.32;100.00;101508.38;5010112;28;20396;-63
2021/05/05 12:45:46;;;;;;;4.43;0.80;;;;;;;12.43;98.15;101486.69;5010657;28;20037;-66
2021/05/05 12:48:11;;;;;;;5.47;0.88;;;;;;;12.71;97.00;101489.53;5010199;28;20046;-63
2021/05/05 12:50:42;;;;;;;2.38;0.68;;;;;;;12.76;96.73;101486.91;5009719;28;20042;-64
2021/05/05 12:53:08;;;;;;;2.47;0.60;;;;;;;12.92;93.95;101491.63;5010132;28;20033;-64
2021/05/05 12:55:37;;;;;;;3.60;0.60;;;;;;;13.44;94.55;101482.56;5009888;28;20041;-63
2021/05/05 12:58:09;;;;;;;3.08;0.70;;;;;;;13.60;85.50;101489.16;5009855;28;20038;-63
2021/05/05 13:00:37;;;;;;;4.15;0.88;;;;;;;13.58;84.99;101486.66;5009907;28;20042;-65
2021/05/05 13:03:09;;;;;;;1.45;0.47;;;;;;;14.05;77.91;101484.44;5009880;28;20046;-65
2021/05/05 13:05:54;;;;;;;2.30;0.55;;;;;;;14.15;76.91;101498.34;5009590;28;20026;-63
2021/05/05 13:08:38;;;;;;;3.97;0.52;;;;;;;14.22;76.92;101473.47;5013631;28;20406;-64
2021/05/05 13:11:12;;;;;;;3.00;0.52;;;;;;;13.93;68.81;101486.47;5013832;28;20484;-64
2021/05/05 13:13:44;;;;;;;2.08;0.50;;;;;;;14.11;63.61;101483.47;5013614;28;20169;-66
2021/05/05 13:16:28;;;;;;;4.22;0.60;;;;;;;14.45;64.03;101488.97;5028904;28;20120;-63
2021/05/05 13:19:16;;;;;;;2.33;0.40;;;;;;;14.76;62.29;101479.25;5013881;28;20489;-66
2021/05/05 13:30:45;;;;;;;2.20;0.55;;;;;;;14.19;58.92;101482.19;5013689;28;20040;-65
2021/05/05 13:33:18;;;;;;;1.13;0.40;;;;;;;13.77;58.30;101487.28;5013441;28;20049;-64
2021/05/05 13:35:49;;;;;;;0.50;0.30;;;;;;;13.90;59.14;101481.47;5013494;28;20034;-62
2021/05/05 13:38:33;;;;;;;1.00;0.70;;;;;;;14.09;58.42;101479.31;5012349;28;20041;-64
2021/05/05 13:41:03;;;;;;;1.30;0.55;;;;;;;13.88;57.30;101486.34;5013330;28;20046;-65
2021/05/05 13:46:29;;;;;;;1.63;0.50;;;;;;;14.53;56.96;101480.28;5013375;28;20026;-64